Time;durP1;ratioP1;P1;durP2;ratioP2;P2;SDS_P1;SDS_P2;PMS_P1;PMS_P2;Temp;Humidity;BMP_temperature;BMP_pressure;BME280_temperature;BME280_humidity;BME280_pressure;Samples;Min_cycle;Max_cycle;Signal;HPM_P1;HPM_P2
2021/04/23 00:00:19;;;;;;;7.17;2.07;;;17.70;84.70;;;;;;5054662;28;20568;-72
2021/04/23 00:02:47;;;;;;;6.60;1.73;;;17.60;83.40;;;;;;5055803;28;20262;-72
2021/04/23 00:05:17;;;;;;;6.77;2.00;;;17.70;83.40;;;;;;5055214;28;20199;-71
2021/04/23 00:07:44;;;;;;;5.37;1.60;;;17.80;83.00;;;;;;5054166;28;20192;-72
2021/04/23 00:10:15;;;;;;;4.60;1.70;;;17.80;82.50;;;;;;5054864;28;20184;-75
2021/04/23 00:12:42;;;;;;;12.20;1.87;;;17.90;82.40;;;;;;5055006;28;20610;-77
2021/04/23 00:15:15;;;;;;;5.07;1.60;;;18.00;82.40;;;;;;5054101;28;20195;-74
2021/04/23 00:17:43;;;;;;;6.20;2.03;;;18.20;81.50;;;;;;5056825;28;20201;-74
2021/04/23 00:20:26;;;;;;;4.53;1.90;;;18.10;80.70;;;;;;5054297;28;20203;-75
2021/04/23 00:22:55;;;;;;;7.83;1.90;;;18.00;81.20;;;;;;5052931;28;20642;-75
2021/04/23 00:25:27;;;;;;;6.83;2.03;;;18.10;81.20;;;;;;5054124;28;20622;-77
2021/04/23 00:28:00;;;;;;;6.90;1.70;;;18.10;80.20;;;;;;5048515;28;20191;-78
2021/04/23 00:30:32;;;;;;;8.83;1.83;;;18.20;81.10;;;;;;5053195;28;20237;-79
2021/04/23 00:33:04;;;;;;;3.07;1.73;;;18.50;81.10;;;;;;5050913;28;20206;-78
2021/04/23 00:35:36;;;;;;;4.47;2.00;;;18.60;79.60;;;;;;5054494;28;20696;-79
2021/04/23 00:38:07;;;;;;;8.83;2.30;;;18.80;80.40;;;;;;5053862;28;20541;-78
2021/04/23 00:40:38;;;;;;;10.13;2.60;;;18.90;79.30;;;;;;5053454;28;20216;-74
2021/04/23 00:43:07;;;;;;;7.40;2.20;;;18.80;78.20;;;;;;5052572;28;20192;-73
2021/04/23 00:45:35;;;;;;;9.13;3.60;;;18.90;77.60;;;;;;5052719;28;20176;-74
2021/04/23 00:48:05;;;;;;;12.43;3.57;;;18.80;77.50;;;;;;5048226;28;20187;-70
2021/04/23 00:50:41;;;;;;;11.83;4.33;;;18.70;77.80;;;;;;5053831;28;20265;-76
2021/04/23 00:53:13;;;;;;;9.43;4.47;;;18.60;77.90;;;;;;5053822;28;20627;-72
2021/04/23 00:55:41;;;;;;;11.37;4.47;;;18.70;78.50;;;;;;5053879;28;20639;-78
2021/04/23 00:58:14;;;;;;;9.63;4.00;;;18.90;77.50;;;;;;5051995;28;20184;-72
2021/04/23 01:00:47;;;;;;;10.87;4.50;;;19.00;77.70;;;;;;5052545;28;20222;-73
2021/04/23 01:03:16;;;;;;;9.60;3.80;;;19.10;77.10;;;;;;5051133;28;20179;-75
2021/04/23 01:05:44;;;;;;;11.10;3.47;;;19.30;76.50;;;;;;5047408;28;20202;-72
2021/04/23 01:08:12;;;;;;;6.70;2.30;;;19.50;76.90;;;;;;5053194;28;20183;-71
2021/04/23 01:10:39;;;;;;;3.47;2.07;;;19.60;74.10;;;;;;5053497;28;20577;-75
2021/04/23 01:13:07;;;;;;;7.00;1.90;;;19.50;74.60;;;;;;5053191;28;20660;-73
2021/04/23 01:15:35;;;;;;;4.70;1.50;;;19.40;73.90;;;;;;5052424;28;20262;-69
2021/04/23 01:18:03;;;;;;;13.53;1.87;;;19.50;75.00;;;;;;5052548;28;20570;-72
2021/04/23 01:20:31;;;;;;;5.47;1.60;;;19.90;74.60;;;;;;5048218;28;20223;-70
2021/04/23 01:22:58;;;;;;;7.03;2.00;;;20.00;72.90;;;;;;5041254;28;20199;-73
2021/04/23 01:25:26;;;;;;;6.10;1.57;;;20.10;73.10;;;;;;5051984;28;20547;-72
2021/04/23 01:27:53;;;;;;;9.43;1.50;;;20.10;73.00;;;;;;5051085;28;20650;-70
2021/04/23 01:30:22;;;;;;;5.37;1.30;;;20.30;73.00;;;;;;5051413;28;20223;-69
2021/04/23 01:32:52;;;;;;;3.70;1.57;;;20.60;72.80;;;;;;5040757;28;20187;-68
2021/04/23 01:35:28;;;;;;;5.73;1.37;;;20.70;72.20;;;;;;5033005;28;20177;-68
2021/04/23 01:37:56;;;;;;;3.23;1.30;;;21.10;71.60;;;;;;5034623;28;20190;-70
2021/04/23 01:40:23;;;;;;;4.30;1.47;;;20.80;71.00;;;;;;5035813;28;20204;-69
2021/04/23 01:42:51;;;;;;;7.07;1.60;;;20.60;71.10;;;;;;5052220;28;20267;-72
2021/04/23 01:45:19;;;;;;;3.23;1.10;;;20.70;71.40;;;;;;5051320;28;20536;-68
2021/04/23 01:47:47;;;;;;;6.90;1.73;;;20.80;71.40;;;;;;5051723;28;20642;-70
2021/04/23 01:50:18;;;;;;;7.27;1.53;;;21.20;70.50;;;;;;5052736;28;20176;-73
2021/04/23 01:52:48;;;;;;;4.43;1.10;;;21.30;70.10;;;;;;5066643;28;20187;-74
2021/04/23 01:55:19;;;;;;;5.77;1.37;;;21.30;69.40;;;;;;5052165;28;20191;-70
2021/04/23 01:57:47;;;;;;;4.50;1.03;;;21.40;69.80;;;;;;5052293;28;20270;-74
2021/04/23 02:00:20;;;;;;;5.77;1.10;;;21.50;69.30;;;;;;5043229;28;20223;-74
2021/04/23 02:02:50;;;;;;;5.77;1.40;;;21.40;68.70;;;;;;5038753;28;20188;-72
2021/04/23 02:05:18;;;;;;;3.60;0.97;;;21.50;68.50;;;;;;5051354;28;20206;-70
2021/04/23 02:07:46;;;;;;;6.63;1.37;;;21.80;68.20;;;;;;5048456;28;20241;-73
2021/04/23 02:10:29;;;;;;;5.03;1.00;;;22.10;67.90;;;;;;5051340;28;20259;-71
2021/04/23 02:12:57;;;;;;;6.20;1.23;;;21.90;66.70;;;;;;5051194;28;20187;-74
2021/04/23 02:15:29;;;;;;;3.47;1.07;;;22.20;66.90;;;;;;5050479;28;20263;-74
2021/04/23 02:17:59;;;;;;;4.10;1.00;;;22.30;66.10;;;;;;5051223;28;20718;-72
2021/04/23 02:20:30;;;;;;;4.20;1.30;;;22.40;65.60;;;;;;5051370;28;20208;-70
2021/04/23 02:23:00;;;;;;;6.67;1.23;;;22.30;66.10;;;;;;5049586;28;20176;-71
2021/04/23 02:25:32;;;;;;;4.17;1.00;;;22.20;66.30;;;;;;5051467;28;20191;-69
2021/04/23 02:28:00;;;;;;;2.97;1.03;;;22.20;65.40;;;;;;5051317;28;20176;-71
2021/04/23 02:30:37;;;;;;;10.00;1.20;;;22.40;66.00;;;;;;5050738;28;20223;-70
2021/04/23 02:33:06;;;;;;;5.63;1.20;;;22.70;64.60;;;;;;5048504;28;20649;-70
2021/04/23 02:35:35;;;;;;;2.83;1.10;;;22.70;64.30;;;;;;5051491;28;20179;-74
2021/04/23 02:38:04;;;;;;;2.53;1.20;;;22.20;65.30;;;;;;5049734;28;20184;-70
2021/04/23 02:40:32;;;;;;;3.30;1.40;;;22.40;65.00;;;;;;5048982;28;20208;-71
2021/04/23 02:43:04;;;;;;;4.90;1.20;;;22.80;64.80;;;;;;5050764;28;20172;-76
2021/04/23 02:45:34;;;;;;;6.00;1.30;;;22.80;64.70;;;;;;5048508;28;20188;-75
2021/04/23 02:48:03;;;;;;;9.60;1.27;;;23.20;64.50;;;;;;5050843;28;20172;-78
2021/04/23 02:50:31;;;;;;;3.17;0.90;;;23.30;63.40;;;;;;5049420;28;20576;-72
2021/04/23 02:52:59;;;;;;;5.80;1.10;;;22.80;63.00;;;;;;5050676;28;20188;-73
2021/04/23 02:55:27;;;;;;;6.23;0.90;;;23.10;63.50;;;;;;5050288;28;20180;-69
2021/04/23 02:58:10;;;;;;;2.73;1.20;;;23.30;64.10;;;;;;5050233;28;20188;-73
2021/04/23 03:00:41;;;;;;;4.73;1.23;;;23.20;63.10;;;;;;5049792;28;20689;-69
2021/04/23 03:03:10;;;;;;;2.87;1.10;;;22.80;63.20;;;;;;5050842;28;20587;-75
2021/04/23 03:05:40;;;;;;;4.57;1.27;;;23.00;63.20;;;;;;5048811;28;20188;-76
2021/04/23 03:08:08;;;;;;;4.30;1.40;;;23.40;63.20;;;;;;5053148;28;20172;-74
2021/04/23 03:10:40;;;;;;;4.87;1.10;;;23.60;62.60;;;;;;5048204;28;20681;-73
2021/04/23 03:13:20;;;;;;;2.77;1.10;;;23.40;62.10;;;;;;5043080;28;20176;-73
2021/04/23 03:15:49;;;;;;;9.13;1.40;;;23.10;62.70;;;;;;5051751;28;20191;-76
2021/04/23 03:18:19;;;;;;;9.33;2.10;;;23.50;62.90;;;;;;5054448;28;20207;-71
2021/04/23 03:20:48;;;;;;;4.27;1.30;;;24.00;62.20;;;;;;5052206;28;20616;-71
2021/04/23 03:23:15;;;;;;;5.23;1.30;;;23.70;61.90;;;;;;5055412;28;20179;-75
2021/04/23 03:25:43;;;;;;;4.03;0.90;;;23.30;62.40;;;;;;5054917;28;20298;-78
2021/04/23 03:28:10;;;;;;;1.93;0.80;;;23.80;62.70;;;;;;5047636;28;20184;-73
2021/04/23 03:30:41;;;;;;;2.87;1.03;;;24.20;62.00;;;;;;5054258;28;20227;-75
2021/04/23 03:33:10;;;;;;;4.50;1.20;;;24.10;60.80;;;;;;5052074;28;20662;-74
2021/04/23 03:35:38;;;;;;;3.50;0.87;;;24.20;61.30;;;;;;5055146;28;20191;-75
2021/04/23 03:38:08;;;;;;;4.10;1.00;;;24.00;61.30;;;;;;5052420;28;20183;-74
2021/04/23 03:40:37;;;;;;;6.60;1.10;;;23.60;61.30;;;;;;5054363;28;20200;-75
2021/04/23 03:43:06;;;;;;;4.87;1.30;;;24.20;61.30;;;;;;5054792;28;20184;-73
2021/04/23 03:45:34;;;;;;;4.63;1.00;;;24.50;59.90;;;;;;5053021;28;20181;-76
2021/04/23 03:48:03;;;;;;;7.73;1.50;;;24.30;60.20;;;;;;5054355;28;20180;-76
2021/04/23 03:50:32;;;;;;;3.50;1.30;;;24.40;60.80;;;;;;5050966;28;20547;-74
2021/04/23 03:53:02;;;;;;;6.30;1.00;;;25.00;59.80;;;;;;5054470;28;20231;-79
2021/04/23 03:55:43;;;;;;;5.40;1.00;;;25.20;59.00;;;;;;5053776;28;20188;-71
2021/04/23 03:58:11;;;;;;;5.00;0.97;;;25.30;58.90;;;;;;5054830;28;20184;-72
2021/04/23 04:00:52;;;;;;;3.40;1.10;;;25.10;59.30;;;;;;5054167;28;20242;-76
2021/04/23 04:03:20;;;;;;;5.43;1.20;;;25.00;59.30;;;;;;5048011;28;20253;-73
2021/04/23 04:05:48;;;;;;;2.47;0.90;;;25.10;59.30;;;;;;5054515;28;20180;-73
2021/04/23 04:08:15;;;;;;;5.00;1.10;;;25.40;58.50;;;;;;5054574;28;20180;-77
2021/04/23 04:10:44;;;;;;;3.03;1.00;;;25.50;58.60;;;;;;5054499;28;20642;-73
2021/04/23 04:13:11;;;;;;;9.33;0.93;;;25.70;58.10;;;;;;5052569;28;20607;-74
2021/04/23 04:15:39;;;;;;;8.73;1.23;;;25.70;58.00;;;;;;5053824;28;20223;-75
2021/04/23 04:18:09;;;;;;;14.33;1.47;;;25.80;57.70;;;;;;5054404;28;20179;-80
2021/04/23 04:20:40;;;;;;;5.57;1.20;;;25.40;58.10;;;;;;5054086;28;20269;-72
2021/04/23 04:23:09;;;;;;;7.50;1.10;;;25.10;58.50;;;;;;5054619;28;20613;-71
2021/04/23 04:25:40;;;;;;;4.23;1.70;;;26.10;58.10;;;;;;5054628;28;20242;-71
2021/04/23 04:28:09;;;;;;;5.23;2.70;;;26.60;57.70;;;;;;5054682;28;20180;-71
2021/04/23 04:30:37;;;;;;;8.67;2.60;;;27.10;59.10;;;;;;5054009;28;20707;-71
2021/04/23 04:33:06;;;;;;;7.60;2.40;;;27.00;59.30;;;;;;5054292;28;20187;-70
2021/04/23 04:35:34;;;;;;;3.87;2.13;;;27.10;59.40;;;;;;5054706;28;20551;-72
2021/04/23 04:38:02;;;;;;;4.13;2.27;;;27.30;59.30;;;;;;5052838;28;20191;-74
2021/04/23 04:40:30;;;;;;;8.53;2.57;;;27.40;58.80;;;;;;5052663;28;20272;-73
2021/04/23 04:42:57;;;;;;;9.93;2.80;;;27.70;58.60;;;;;;5054340;28;20229;-72
2021/04/23 04:45:28;;;;;;;8.30;2.57;;;27.40;58.50;;;;;;5053225;28;20188;-73
2021/04/23 04:47:57;;;;;;;11.47;2.67;;;27.70;58.80;;;;;;5054020;28;20642;-73
2021/04/23 04:50:31;;;;;;;5.70;2.17;;;27.80;58.50;;;;;;5052366;28;20278;-73
2021/04/23 04:53:00;;;;;;;8.47;2.60;;;27.90;57.50;;;;;;5052516;28;20183;-73
2021/04/23 04:55:31;;;;;;;5.40;2.33;;;27.30;58.50;;;;;;5054064;28;20557;-75
2021/04/23 04:58:00;;;;;;;7.43;2.50;;;27.60;58.90;;;;;;5053286;28;20633;-71
2021/04/23 05:00:29;;;;;;;8.90;2.90;;;27.80;58.80;;;;;;5052487;28;20291;-74
2021/04/23 05:02:57;;;;;;;10.97;2.97;;;28.20;57.30;;;;;;5051017;28;20199;-75
2021/04/23 05:05:26;;;;;;;6.20;2.17;;;27.60;57.80;;;;;;5052344;28;20262;-80
2021/04/23 05:07:55;;;;;;;7.07;2.45;;;27.10;58.70;;;;;;5050648;28;20558;-75
2021/04/23 05:10:23;;;;;;;8.52;2.97;;;27.50;58.40;;;;;;5051860;28;20586;-75
2021/04/23 05:12:50;;;;;;;11.17;2.80;;;27.70;59.00;;;;;;5053802;28;20192;-71
2021/04/23 05:15:18;;;;;;;7.82;2.95;;;27.80;58.30;;;;;;5052330;28;20176;-76
2021/04/23 05:17:48;;;;;;;7.13;2.63;;;28.00;58.40;;;;;;5052311;28;20191;-72
2021/04/23 05:20:17;;;;;;;8.55;2.90;;;28.10;57.70;;;;;;5049132;28;20274;-74
2021/04/23 05:22:46;;;;;;;7.68;3.25;;;28.00;57.70;;;;;;5051938;28;20179;-76
2021/04/23 05:25:16;;;;;;;4.82;2.15;;;27.80;58.50;;;;;;5053094;28;20259;-75
2021/04/23 05:27:43;;;;;;;4.83;2.53;;;27.50;58.20;;;;;;5052716;28;20187;-76
2021/04/23 05:30:16;;;;;;;5.13;2.50;;;27.80;58.80;;;;;;5052761;28;20222;-75
2021/04/23 05:32:45;;;;;;;8.27;2.40;;;27.40;59.10;;;;;;5051703;28;20661;-80
2021/04/23 05:35:15;;;;;;;8.88;2.53;;;27.10;59.00;;;;;;5053147;28;20188;-77
2021/04/23 05:37:43;;;;;;;7.30;2.25;;;27.00;59.00;;;;;;5051405;28;20525;-75
2021/04/23 05:40:13;;;;;;;4.70;2.20;;;27.20;59.50;;;;;;5052869;28;20600;-76
2021/04/23 05:42:41;;;;;;;8.07;2.77;;;27.30;59.10;;;;;;5052126;28;20642;-73
2021/04/23 05:45:10;;;;;;;8.43;2.23;;;27.20;59.10;;;;;;5051916;28;20668;-74
2021/04/23 05:47:39;;;;;;;13.10;2.37;;;27.00;59.80;;;;;;5052362;28;20188;-75
2021/04/23 05:50:09;;;;;;;10.50;2.77;;;26.90;60.40;;;;;;5052337;28;20180;-74
2021/04/23 05:52:36;;;;;;;8.23;2.17;;;26.70;59.90;;;;;;5051911;28;20202;-76
2021/04/23 05:55:05;;;;;;;6.97;2.40;;;27.00;59.20;;;;;;5049372;28;20198;-76
2021/04/23 05:57:33;;;;;;;12.90;2.30;;;26.70;59.10;;;;;;5052160;28;20199;-80
2021/04/23 06:00:00;;;;;;;8.53;2.70;;;27.00;59.30;;;;;;5052180;28;20250;-74
2021/04/23 06:02:29;;;;;;;8.83;2.87;;;26.80;58.60;;;;;;5048520;28;20192;-76
2021/04/23 06:04:56;;;;;;;5.97;2.57;;;26.80;58.70;;;;;;5058671;28;20184;-75
2021/04/23 06:07:24;;;;;;;12.53;2.80;;;26.70;59.10;;;;;;5053926;28;20658;-76
2021/04/23 06:09:51;;;;;;;11.67;2.40;;;26.50;59.80;;;;;;5060823;28;20218;-73
2021/04/23 06:12:18;;;;;;;7.70;1.97;;;26.20;60.60;;;;;;5055421;28;20176;-73
2021/04/23 06:14:46;;;;;;;7.87;2.10;;;25.30;61.70;;;;;;5053846;28;20201;-72
2021/04/23 06:17:13;;;;;;;7.40;2.13;;;25.20;62.20;;;;;;5052489;28;20664;-77
2021/04/23 06:19:40;;;;;;;8.57;2.27;;;25.00;62.60;;;;;;5053814;28;20199;-73
2021/04/23 06:22:08;;;;;;;3.70;1.53;;;24.60;63.40;;;;;;5057385;28;20183;-75
2021/04/23 06:24:36;;;;;;;5.73;2.10;;;23.90;64.70;;;;;;5055063;28;20199;-73
2021/04/23 06:27:05;;;;;;;4.60;1.63;;;23.60;65.60;;;;;;5058542;28;20191;-76
2021/04/23 06:29:33;;;;;;;8.43;1.67;;;23.10;66.60;;;;;;5051350;28;20540;-75
2021/04/23 06:32:01;;;;;;;9.87;1.83;;;22.80;67.00;;;;;;5052313;28;20595;-74
2021/04/23 06:34:28;;;;;;;4.63;1.50;;;22.10;68.40;;;;;;5056647;28;20192;-74
2021/04/23 06:36:56;;;;;;;18.13;3.30;;;21.90;68.90;;;;;;5053794;28;20685;-71
2021/04/23 06:39:23;;;;;;;9.20;2.07;;;21.90;69.20;;;;;;5058569;28;20187;-76
2021/04/23 06:41:51;;;;;;;5.93;2.07;;;21.60;69.50;;;;;;5051047;28;20250;-73
2021/04/23 06:44:19;;;;;;;8.13;2.07;;;21.40;69.20;;;;;;5051509;28;20188;-74
2021/04/23 06:46:47;;;;;;;8.27;1.50;;;21.30;70.00;;;;;;5050068;28;20179;-74
2021/04/23 06:49:15;;;;;;;4.93;1.50;;;21.00;70.30;;;;;;5053062;28;20190;-73
2021/04/23 06:51:42;;;;;;;3.27;1.40;;;20.90;69.90;;;;;;5050907;28;20274;-75
2021/04/23 06:54:09;;;;;;;5.17;1.50;;;20.90;70.00;;;;;;5055638;28;20180;-74
2021/04/23 06:56:37;;;;;;;4.33;1.53;;;20.80;70.20;;;;;;5055350;28;20286;-72
2021/04/23 06:59:05;;;;;;;5.67;2.03;;;20.50;71.30;;;;;;5055563;28;20195;-75
2021/04/23 07:01:32;;;;;;;4.07;1.40;;;20.20;72.30;;;;;;5055129;28;20223;-75
2021/04/23 07:03:59;;;;;;;6.77;1.50;;;20.20;73.20;;;;;;5053616;28;20202;-75
2021/04/23 07:06:27;;;;;;;3.03;1.40;;;20.10;73.10;;;;;;5055208;28;20187;-75
2021/04/23 07:08:54;;;;;;;3.53;1.10;;;20.10;73.60;;;;;;5054856;28;20199;-74
2021/04/23 07:11:22;;;;;;;6.87;1.33;;;20.00;74.10;;;;;;5054947;28;20180;-75
2021/04/23 07:13:49;;;;;;;3.57;1.40;;;20.00;74.80;;;;;;5053837;28;20184;-74
2021/04/23 07:16:16;;;;;;;6.00;1.30;;;19.90;74.80;;;;;;5053086;28;20176;-75
2021/04/23 07:18:44;;;;;;;3.73;1.50;;;19.70;75.20;;;;;;5053658;28;20187;-74
2021/04/23 07:21:11;;;;;;;8.40;1.60;;;19.60;75.70;;;;;;5049509;28;20250;-76
2021/04/23 07:23:39;;;;;;;6.17;1.10;;;19.50;76.40;;;;;;5055256;28;20267;-72
2021/04/23 07:26:06;;;;;;;6.00;1.67;;;19.60;76.00;;;;;;5054140;28;20188;-74
2021/04/23 07:28:34;;;;;;;7.73;1.90;;;19.50;76.60;;;;;;5045448;28;20512;-71
2021/04/23 07:31:01;;;;;;;4.23;1.77;;;19.40;77.30;;;;;;5054811;28;20693;-75
2021/04/23 07:33:28;;;;;;;6.10;2.33;;;19.30;77.50;;;;;;5054818;28;20176;-75
2021/04/23 07:35:56;;;;;;;6.13;2.67;;;19.20;78.00;;;;;;5051473;28;20230;-67
2021/04/23 07:38:24;;;;;;;11.03;2.90;;;19.10;78.50;;;;;;5054590;28;20225;-73
2021/04/23 07:40:52;;;;;;;7.13;2.63;;;19.00;79.00;;;;;;5054210;28;20257;-75
2021/04/23 07:43:19;;;;;;;13.20;2.43;;;18.90;78.90;;;;;;5053725;28;20545;-69
2021/04/23 07:45:47;;;;;;;8.60;2.23;;;18.80;79.00;;;;;;5054538;28;20646;-73
2021/04/23 07:48:14;;;;;;;6.67;2.57;;;18.80;79.30;;;;;;5053476;28;20225;-72
2021/04/23 07:50:42;;;;;;;7.73;3.10;;;18.80;79.20;;;;;;5054294;28;20179;-71
2021/04/23 07:53:09;;;;;;;7.43;2.00;;;18.80;79.30;;;;;;5051822;28;20847;-71
2021/04/23 07:55:38;;;;;;;5.67;2.87;;;18.70;79.70;;;;;;5053706;28;20191;-72
2021/04/23 07:58:05;;;;;;;7.20;2.77;;;18.70;79.80;;;;;;5051907;28;20244;-72
2021/04/23 08:00:33;;;;;;;7.70;2.77;;;18.70;79.90;;;;;;5068114;28;20677;-71
2021/04/23 08:03:00;;;;;;;7.10;2.60;;;18.60;80.10;;;;;;5052315;28;20225;-71
2021/04/23 08:05:28;;;;;;;11.60;3.30;;;18.60;79.90;;;;;;5055078;28;20212;-70
2021/04/23 08:07:55;;;;;;;8.03;3.10;;;18.60;80.30;;;;;;5054839;28;20535;-73
2021/04/23 08:10:23;;;;;;;8.60;2.57;;;18.60;80.20;;;;;;5054270;28;20314;-70
2021/04/23 08:12:52;;;;;;;7.10;3.30;;;18.60;80.70;;;;;;5053681;28;20180;-71
2021/04/23 08:15:23;;;;;;;16.30;5.00;;;18.50;80.90;;;;;;5051776;28;20595;-74
2021/04/23 08:17:51;;;;;;;11.07;4.63;;;18.40;81.30;;;;;;5062567;28;20180;-74
2021/04/23 08:20:19;;;;;;;10.30;4.93;;;18.40;81.60;;;;;;5065164;28;20270;-72
2021/04/23 08:22:47;;;;;;;10.07;4.10;;;18.30;81.80;;;;;;5061374;28;20184;-71
2021/04/23 08:25:17;;;;;;;7.80;4.20;;;18.30;82.20;;;;;;5058989;28;20179;-72
2021/04/23 08:27:45;;;;;;;7.87;3.87;;;18.20;82.50;;;;;;5059392;28;20902;-75
2021/04/23 08:30:15;;;;;;;7.73;3.90;;;18.20;82.80;;;;;;5057146;28;20735;-72
2021/04/23 08:32:43;;;;;;;9.87;3.13;;;18.10;83.00;;;;;;5061018;28;20176;-73
2021/04/23 08:35:11;;;;;;;7.07;3.23;;;18.00;83.20;;;;;;5060120;28;20545;-72
2021/04/23 08:37:40;;;;;;;11.07;3.37;;;18.10;83.50;;;;;;5054216;28;20207;-73
2021/04/23 08:40:09;;;;;;;9.17;3.37;;;18.00;83.80;;;;;;5057637;28;20200;-73
2021/04/23 08:42:36;;;;;;;9.23;3.67;;;18.00;84.20;;;;;;5059385;28;20200;-72
2021/04/23 08:45:10;;;;;;;5.80;2.70;;;18.00;84.20;;;;;;5056916;28;20191;-69
2021/04/23 08:47:39;;;;;;;5.90;2.50;;;18.00;84.30;;;;;;5050930;28;20190;-74
2021/04/23 08:50:09;;;;;;;6.70;2.60;;;18.00;84.40;;;;;;5054993;28;20267;-70
2021/04/23 08:52:37;;;;;;;8.47;2.63;;;17.90;84.60;;;;;;5057892;28;20180;-71
2021/04/23 08:55:05;;;;;;;10.13;2.97;;;17.90;84.90;;;;;;5055105;28;20188;-68
2021/04/23 08:57:33;;;;;;;9.50;2.70;;;17.90;84.60;;;;;;5054395;28;20470;-69
2021/04/23 09:00:00;;;;;;;10.50;2.70;;;17.90;84.70;;;;;;5052343;28;20215;-70
2021/04/23 09:02:27;;;;;;;7.67;2.83;;;17.90;85.00;;;;;;5052427;28;20307;-70
2021/04/23 09:04:54;;;;;;;11.00;3.03;;;17.90;85.20;;;;;;5048275;28;20241;-71
2021/04/23 09:07:22;;;;;;;5.43;2.20;;;17.90;85.70;;;;;;5051978;28;20304;-69
2021/04/23 09:09:49;;;;;;;9.07;2.70;;;17.80;85.70;;;;;;5051513;28;20580;-69
2021/04/23 09:12:27;;;;;;;8.80;2.67;;;17.70;85.90;;;;;;5050942;28;20176;-69
2021/04/23 09:14:56;;;;;;;10.20;2.80;;;17.50;86.60;;;;;;5052306;28;20321;-70
2021/04/23 09:17:25;;;;;;;9.10;2.73;;;17.50;87.10;;;;;;5052644;28;20267;-70
2021/04/23 09:19:53;;;;;;;6.00;2.40;;;17.40;87.50;;;;;;5051493;28;20209;-70
2021/04/23 09:22:33;;;;;;;10.17;2.97;;;17.40;87.70;;;;;;5048472;28;20199;-73
2021/04/23 09:25:12;;;;;;;9.13;3.00;;;17.30;88.00;;;;;;5050035;28;20630;-72
2021/04/23 09:27:48;;;;;;;5.27;2.80;;;17.30;88.50;;;;;;5051643;28;20179;-77
2021/04/23 09:30:16;;;;;;;9.23;3.40;;;17.30;88.80;;;;;;5051789;28;20219;-71
2021/04/23 09:32:44;;;;;;;8.33;3.50;;;17.20;88.80;;;;;;5052729;28;20643;-75
2021/04/23 09:35:21;;;;;;;8.83;3.93;;;17.20;89.00;;;;;;5052605;28;20638;-74
2021/04/23 09:37:52;;;;;;;10.73;2.77;;;17.10;89.20;;;;;;5049706;28;20524;-75
2021/04/23 09:40:24;;;;;;;11.43;3.43;;;17.00;89.90;;;;;;5052484;28;20215;-75
2021/04/23 09:42:51;;;;;;;10.40;3.70;;;17.00;90.00;;;;;;5043842;28;20191;-74
2021/04/23 09:45:21;;;;;;;12.80;4.13;;;16.90;90.60;;;;;;5051756;28;20188;-75
2021/04/23 09:47:49;;;;;;;11.97;4.03;;;16.90;90.80;;;;;;5051132;28;20176;-73
2021/04/23 09:50:19;;;;;;;10.20;3.90;;;16.90;91.10;;;;;;5051287;28;20176;-73
2021/04/23 09:52:55;;;;;;;8.43;4.03;;;16.70;91.40;;;;;;5051761;28;20183;-76
2021/04/23 09:55:28;;;;;;;10.00;4.30;;;16.70;91.50;;;;;;5051376;28;20180;-76
2021/04/23 09:58:04;;;;;;;10.87;4.90;;;16.60;91.60;;;;;;5051441;28;20187;-74
2021/04/23 10:00:35;;;;;;;12.20;5.00;;;16.60;91.70;;;;;;5046333;28;20562;-75
2021/04/23 10:03:05;;;;;;;14.00;5.90;;;16.60;91.80;;;;;;5049884;28;20293;-74
2021/04/23 10:05:35;;;;;;;15.30;5.10;;;16.50;92.10;;;;;;5048055;28;20312;-76
2021/04/23 10:08:09;;;;;;;10.60;5.40;;;16.50;92.20;;;;;;5049452;28;20783;-73
2021/04/23 10:10:51;;;;;;;9.93;5.43;;;16.50;92.30;;;;;;5044361;28;20666;-73
2021/04/23 10:13:34;;;;;;;12.57;5.90;;;16.50;92.30;;;;;;5051598;28;20184;-75
2021/04/23 10:16:03;;;;;;;13.27;6.67;;;16.40;92.30;;;;;;5051579;28;20590;-74
2021/04/23 10:18:32;;;;;;;13.50;6.23;;;16.30;92.60;;;;;;5050767;28;20586;-74
2021/04/23 10:21:00;;;;;;;13.83;6.37;;;16.20;93.00;;;;;;5050991;28;20215;-75
2021/04/23 10:23:29;;;;;;;12.17;5.67;;;16.30;93.30;;;;;;5050127;28;20230;-74
2021/04/23 10:25:58;;;;;;;10.27;4.93;;;16.20;93.20;;;;;;5051609;28;20248;-73
2021/04/23 10:28:26;;;;;;;10.03;5.17;;;16.20;92.90;;;;;;5050514;28;20206;-75
2021/04/23 10:30:56;;;;;;;14.53;5.40;;;16.10;92.90;;;;;;5047244;28;20230;-72
2021/04/23 10:33:29;;;;;;;13.27;5.27;;;16.20;92.90;;;;;;5051931;28;20192;-71
2021/04/23 10:35:59;;;;;;;13.97;4.83;;;16.10;93.10;;;;;;5051247;28;20543;-76
2021/04/23 10:38:31;;;;;;;10.77;5.40;;;16.10;93.60;;;;;;5051665;28;20191;-75
2021/04/23 10:41:03;;;;;;;12.10;5.23;;;16.00;93.70;;;;;;5051182;28;20227;-74
2021/04/23 10:43:32;;;;;;;11.83;5.53;;;16.00;94.00;;;;;;5048106;28;20253;-75
2021/04/23 10:46:01;;;;;;;14.40;6.40;;;16.00;94.10;;;;;;5051288;28;20672;-74
2021/04/23 10:48:31;;;;;;;14.60;6.77;;;16.00;94.30;;;;;;5050906;28;20221;-74
2021/04/23 10:51:11;;;;;;;13.70;6.23;;;15.90;94.40;;;;;;5050742;28;20217;-76
2021/04/23 10:53:46;;;;;;;15.80;6.63;;;15.90;94.40;;;;;;5050134;28;20481;-75
2021/04/23 10:56:32;;;;;;;15.50;6.70;;;15.90;94.60;;;;;;5050053;28;20214;-75
2021/04/23 10:59:01;;;;;;;12.77;5.73;;;15.90;94.80;;;;;;5048596;28;20629;-73
2021/04/23 11:01:39;;;;;;;15.83;6.63;;;15.80;95.20;;;;;;5049440;28;20293;-75
2021/04/23 11:04:12;;;;;;;14.47;6.47;;;15.80;95.30;;;;;;5044471;28;20198;-74
2021/04/23 11:06:42;;;;;;;15.90;6.77;;;15.70;95.60;;;;;;5049291;28;20192;-74
2021/04/23 11:09:21;;;;;;;14.10;7.47;;;15.60;95.70;;;;;;5051655;28;20265;-74
2021/04/23 11:12:17;;;;;;;15.40;6.57;;;15.60;95.50;;;;;;5050801;28;20180;-71
2021/04/23 11:14:46;;;;;;;16.73;6.77;;;15.70;95.60;;;;;;5049057;28;20222;-74
2021/04/23 11:17:19;;;;;;;16.80;6.80;;;15.70;95.70;;;;;;5050354;28;20187;-76
2021/04/23 11:19:51;;;;;;;16.63;7.00;;;15.70;95.60;;;;;;5050379;28;20519;-71
2021/04/23 11:22:29;;;;;;;22.17;7.27;;;15.60;95.80;;;;;;5050850;28;20184;-74
2021/04/23 11:25:11;;;;;;;14.07;7.13;;;15.50;96.50;;;;;;5051829;28;20187;-73
2021/04/23 11:28:02;;;;;;;15.70;8.30;;;15.50;96.40;;;;;;5050860;28;20658;-74
2021/04/23 11:30:49;;;;;;;15.07;7.67;;;15.50;96.40;;;;;;5049264;28;20226;-72
2021/04/23 11:33:53;;;;;;;18.63;7.63;;;15.50;96.60;;;;;;5048176;28;20186;-75
2021/04/23 11:36:33;;;;;;;15.47;7.30;;;15.50;96.70;;;;;;5050558;28;21015;-74
2021/04/23 11:39:07;;;;;;;16.87;7.97;;;15.40;96.80;;;;;;5054995;28;20180;-74
2021/04/23 11:41:34;;;;;;;18.87;7.17;;;15.40;96.90;;;;;;5054562;28;20218;-74
2021/04/23 11:44:02;;;;;;;18.17;8.43;;;15.40;97.10;;;;;;5047016;28;20535;-74
2021/04/23 11:46:52;;;;;;;15.53;7.03;;;15.40;97.10;;;;;;5054343;28;20203;-73
2021/04/23 11:49:19;;;;;;;18.77;7.23;;;15.30;97.20;;;;;;5054130;28;20181;-74
2021/04/23 11:51:52;;;;;;;16.27;8.23;;;15.30;97.40;;;;;;5053215;28;20183;-73
2021/04/23 11:54:39;;;;;;;17.13;8.13;;;15.30;97.40;;;;;;5054800;28;20180;-74
2021/04/23 11:57:09;;;;;;;19.50;8.53;;;15.20;97.80;;;;;;5051955;28;20194;-75
2021/04/23 11:59:37;;;;;;;17.50;8.80;;;15.10;98.00;;;;;;5052491;28;20557;-76
2021/04/23 12:02:04;;;;;;;19.03;8.00;;;15.00;98.30;;;;;;5052178;28;20270;-74
2021/04/23 12:04:47;;;;;;;18.10;9.40;;;15.00;98.60;;;;;;5053222;28;20663;-74
2021/04/23 12:07:15;;;;;;;19.67;7.83;;;14.90;98.50;;;;;;5053101;28;20194;-74
2021/04/23 12:09:43;;;;;;;21.60;7.47;;;14.90;98.80;;;;;;5049789;28;20199;-72
2021/04/23 12:12:14;;;;;;;12.27;6.47;;;14.90;98.80;;;;;;5051483;28;20322;-71
2021/04/23 12:14:48;;;;;;;19.40;6.97;;;15.00;98.90;;;;;;5049881;28;20187;-75
2021/04/23 12:17:16;;;;;;;17.70;7.00;;;15.00;98.90;;;;;;5053060;28;20333;-73
2021/04/23 12:19:44;;;;;;;24.00;8.97;;;14.90;99.00;;;;;;5053446;28;20207;-75
2021/04/23 12:22:12;;;;;;;16.07;6.73;;;14.90;99.00;;;;;;5053751;28;20192;-73
2021/04/23 12:24:39;;;;;;;15.07;6.83;;;14.80;99.20;;;;;;5053841;28;20190;-74
2021/04/23 12:27:06;;;;;;;20.70;8.10;;;14.70;99.10;;;;;;5053782;28;20176;-74
2021/04/23 12:29:34;;;;;;;20.10;7.53;;;14.70;99.50;;;;;;5053242;28;20180;-75
2021/04/23 12:32:01;;;;;;;19.33;7.90;;;14.70;99.40;;;;;;5042952;28;20196;-75
2021/04/23 12:34:28;;;;;;;14.40;6.83;;;14.70;99.60;;;;;;5060251;28;20186;-73
2021/04/23 12:36:56;;;;;;;20.37;7.60;;;14.80;99.70;;;;;;5058922;28;20540;-74
2021/04/23 12:39:27;;;;;;;17.03;7.27;;;14.70;99.90;;;;;;5055087;28;20173;-75
2021/04/23 12:41:59;;;;;;;11.70;6.53;;;14.60;99.90;;;;;;5052487;28;20222;-76
2021/04/23 12:44:35;;;;;;;13.63;6.37;;;14.60;99.90;;;;;;5053601;28;20242;-73
2021/04/23 12:47:07;;;;;;;13.13;6.37;;;14.50;99.90;;;;;;5052105;28;20286;-75
2021/04/23 12:49:41;;;;;;;16.13;7.07;;;14.50;99.90;;;;;;5053211;28;20184;-75
2021/04/23 12:52:14;;;;;;;12.83;5.97;;;14.50;99.90;;;;;;5051128;28;20191;-75
2021/04/23 12:54:43;;;;;;;13.23;6.20;;;14.50;99.90;;;;;;5053367;28;20192;-73
2021/04/23 12:57:17;;;;;;;18.97;6.17;;;14.50;99.90;;;;;;5053094;28;20176;-75